createdAt,value
2023-01-04T00:01:22.554Z,95.33
2023-01-04T00:02:54.294Z,95.46
2023-01-04T00:04:26.173Z,95.43
2023-01-04T00:05:59.304Z,95.13
2023-01-04T00:07:31.031Z,95.98
2023-01-04T00:09:02.918Z,96.27
2023-01-04T00:10:35.330Z,96.44
2023-01-04T00:12:07.069Z,96.38
2023-01-04T00:13:39.350Z,96.46
2023-01-04T00:15:11.322Z,95.58
2023-01-04T00:16:43.091Z,95.92
2023-01-04T00:18:14.727Z,95.72
2023-01-04T00:19:46.420Z,95.99
2023-01-04T00:21:21.682Z,95.80
2023-01-04T00:22:53.395Z,96.31
2023-01-04T00:24:25.041Z,95.75
2023-01-04T00:25:56.659Z,95.02
2023-01-04T00:27:28.243Z,94.92
2023-01-04T00:29:02.785Z,94.98
2023-01-04T00:30:34.561Z,95.40
2023-01-04T00:32:06.256Z,95.21
2023-01-04T00:33:38.204Z,95.19
2023-01-04T00:35:10.495Z,95.40
2023-01-04T00:36:42.368Z,95.61
2023-01-04T00:38:13.945Z,95.41
2023-01-04T00:39:45.551Z,95.67
2023-01-04T00:41:56.418Z,95.80
2023-01-04T00:43:08.713Z,95.53
2023-01-04T00:44:40.324Z,95.33
2023-01-04T00:46:12.048Z,95.87
2023-01-04T00:47:43.682Z,96.00
2023-01-04T00:49:15.445Z,96.46
2023-01-04T00:50:48.204Z,96.20
2023-01-04T00:52:19.879Z,95.96
2023-01-04T00:53:51.978Z,96.62
2023-01-04T00:55:23.595Z,96.09
2023-01-04T00:56:55.396Z,96.04
2023-01-04T00:58:27.044Z,95.53
2023-01-04T00:59:58.636Z,95.79
2023-01-04T01:01:31.967Z,95.64
2023-01-04T01:03:04.678Z,96.02
2023-01-04T01:04:36.747Z,96.06
2023-01-04T01:06:08.602Z,96.17
2023-01-04T01:07:40.264Z,96.02
2023-01-04T01:09:12.632Z,96.08
2023-01-04T01:10:44.312Z,95.54
2023-01-04T01:12:15.877Z,95.74
2023-01-04T01:13:48.221Z,95.70
2023-01-04T01:15:19.813Z,95.47
2023-01-04T01:16:59.710Z,95.55
2023-01-04T01:18:31.432Z,95.81
2023-01-04T01:20:05.154Z,95.69
2023-01-04T01:21:37.860Z,95.73
2023-01-04T01:23:10.966Z,96.09
2023-01-04T01:24:42.487Z,95.92
2023-01-04T01:26:19.291Z,96.03
2023-01-04T01:27:50.943Z,95.75
2023-01-04T01:29:22.783Z,95.24
2023-01-04T01:30:54.662Z,95.89
2023-01-04T01:32:26.393Z,96.41
2023-01-04T01:33:59.816Z,96.31
2023-01-04T01:35:33.751Z,96.38
2023-01-04T01:37:06.092Z,96.63
2023-01-04T01:38:38.409Z,96.58
2023-01-04T01:40:10.730Z,96.68
2023-01-04T01:41:42.457Z,96.94
2023-01-04T01:43:22.490Z,97.24
2023-01-04T01:45:01.860Z,97.28
2023-01-04T01:46:54.719Z,97.14
2023-01-04T01:48:29.704Z,97.12
2023-01-04T01:50:02.981Z,96.84
2023-01-04T01:51:35.470Z,96.58
2023-01-04T01:53:09.716Z,96.19
2023-01-04T01:54:47.282Z,96.25
2023-01-04T01:56:19.680Z,96.50
2023-01-04T01:57:54.556Z,96.47
2023-01-04T01:59:27.614Z,95.79
2023-01-04T02:00:59.587Z,95.57
2023-01-04T02:02:31.332Z,95.01
2023-01-04T02:04:05.155Z,95.32
2023-01-04T02:05:37.388Z,95.23
2023-01-04T02:07:11.951Z,95.40
2023-01-04T02:08:43.891Z,95.69
2023-01-04T02:10:15.934Z,95.64
2023-01-04T02:11:47.564Z,95.24
2023-01-04T02:13:23.632Z,95.47
2023-01-04T02:14:55.285Z,95.33
2023-01-04T02:16:44.918Z,95.64
2023-01-04T02:18:24.137Z,95.50
2023-01-04T02:20:14.225Z,95.84
2023-01-04T02:22:04.063Z,95.23
2023-01-04T02:23:50.593Z,95.29
2023-01-04T02:25:34.058Z,95.71
2023-01-04T02:27:34.290Z,95.12
2023-01-04T02:29:30.545Z,95.90
2023-01-04T02:31:26.922Z,96.37
2023-01-04T02:33:23.259Z,96.03
2023-01-04T02:35:22.742Z,96.49
2023-01-04T02:37:19.015Z,95.60
2023-01-04T02:38:53.432Z,96.45
2023-01-04T02:41:15.429Z,96.34
2023-01-04T02:43:22.528Z,96.50
2023-01-04T02:45:04.510Z,96.78
2023-01-04T02:46:42.750Z,96.75
2023-01-04T02:48:32.883Z,97.61
2023-01-04T02:50:32.283Z,97.80
2023-01-04T02:52:03.998Z,97.41
2023-01-04T02:53:38.816Z,96.94
2023-01-04T02:55:10.432Z,97.16
2023-01-04T02:56:57.284Z,97.06
2023-01-04T02:58:52.008Z,96.84
2023-01-04T03:00:26.609Z,97.27
2023-01-04T03:02:43.293Z,96.78
2023-01-04T03:04:39.248Z,97.60
2023-01-04T03:06:25.704Z,97.54
2023-01-04T03:08:08.543Z,96.56
2023-01-04T03:09:45.443Z,96.91
2023-01-04T03:11:36.304Z,97.07
2023-01-04T03:13:17.650Z,96.93
2023-01-04T03:15:00.980Z,96.65
2023-01-04T03:16:35.905Z,96.91
2023-01-04T03:18:18.121Z,96.95
2023-01-04T03:19:55.165Z,96.63
2023-01-04T03:21:28.393Z,96.54
2023-01-04T03:23:27.455Z,97.25
2023-01-04T03:25:19.742Z,97.21
2023-01-04T03:27:23.401Z,96.49
2023-01-04T03:29:18.649Z,96.96
2023-01-04T03:31:19.120Z,97.03
2023-01-04T03:33:22.439Z,97.60
2023-01-04T03:35:13.590Z,97.88
2023-01-04T03:37:21.802Z,97.51
2023-01-04T03:39:39.946Z,98.11
2023-01-04T03:41:35.217Z,98.26
2023-01-04T03:43:28.501Z,98.10
2023-01-04T03:45:37.653Z,98.27
2023-01-04T03:47:36.275Z,98.64
2023-01-04T03:49:13.820Z,98.84
2023-01-04T03:50:52.018Z,99.30
2023-01-04T03:52:27.079Z,99.56
2023-01-04T03:54:17.634Z,99.11
2023-01-04T03:55:51.242Z,99.15
2023-01-04T03:57:23.645Z,98.88
2023-01-04T03:58:55.279Z,98.78
2023-01-04T04:00:27.864Z,98.81
2023-01-04T04:01:59.503Z,98.17
2023-01-04T04:03:50.530Z,97.99
2023-01-04T04:05:43.271Z,97.90
2023-01-04T04:07:33.198Z,97.86
2023-01-04T04:09:04.883Z,97.68
2023-01-04T04:10:36.511Z,97.77
2023-01-04T04:12:08.166Z,97.18
2023-01-04T04:13:39.719Z,98.02
2023-01-04T04:15:11.404Z,97.75
2023-01-04T04:16:43.060Z,97.66
2023-01-04T04:18:14.700Z,96.76
2023-01-04T04:19:46.308Z,96.39
2023-01-04T04:21:17.899Z,96.79
2023-01-04T04:22:49.517Z,97.13
2023-01-04T04:24:26.988Z,97.16
2023-01-04T04:25:58.671Z,96.63
2023-01-04T04:27:30.290Z,96.24
2023-01-04T04:29:01.885Z,96.23
2023-01-04T04:30:33.504Z,96.73
2023-01-04T04:32:05.347Z,96.76
2023-01-04T04:33:37.038Z,96.46
2023-01-04T04:35:09.179Z,96.48
2023-01-04T04:36:40.844Z,96.29
2023-01-04T04:38:12.403Z,96.01
2023-01-04T04:39:43.973Z,96.05
2023-01-04T04:41:34.392Z,95.99
2023-01-04T04:43:08.010Z,96.09
2023-01-04T04:44:39.694Z,96.04
2023-01-04T04:46:11.387Z,96.21
2023-01-04T04:47:43.009Z,96.66
2023-01-04T04:49:15.007Z,96.52
2023-01-04T04:50:46.535Z,96.65
2023-01-04T04:52:18.171Z,96.02
2023-01-04T04:53:49.755Z,96.37
2023-01-04T04:55:21.308Z,95.89
2023-01-04T04:56:52.934Z,95.57
2023-01-04T04:58:24.661Z,95.80
2023-01-04T04:59:56.239Z,95.12
2023-01-04T05:01:27.888Z,95.13
2023-01-04T05:03:00.487Z,94.76
2023-01-04T05:04:32.175Z,95.11
2023-01-04T05:06:04.336Z,94.94
2023-01-04T05:07:36.010Z,95.06
2023-01-04T05:09:07.780Z,94.71
2023-01-04T05:10:39.410Z,95.44
2023-01-04T05:12:31.190Z,95.52
2023-01-04T05:14:02.800Z,94.80
2023-01-04T05:15:39.692Z,95.20
2023-01-04T05:17:11.345Z,95.21
2023-01-04T05:18:42.998Z,95.39
2023-01-04T05:20:14.601Z,95.08
2023-01-04T05:21:46.154Z,94.68
2023-01-04T05:23:19.785Z,94.76
2023-01-04T05:24:51.387Z,95.20
2023-01-04T05:26:23.046Z,94.45
2023-01-04T05:27:55.196Z,94.84
2023-01-04T05:29:45.203Z,94.63
2023-01-04T05:31:16.823Z,94.67
2023-01-04T05:32:48.457Z,94.29
2023-01-04T05:34:22.276Z,94.31
2023-01-04T05:35:56.305Z,94.36
2023-01-04T05:37:27.931Z,94.25
2023-01-04T05:38:59.527Z,94.65
2023-01-04T05:40:31.464Z,94.89
2023-01-04T05:42:21.975Z,95.55
2023-01-04T05:43:53.535Z,94.92
2023-01-04T05:45:27.230Z,94.60
2023-01-04T05:46:58.821Z,94.29
2023-01-04T05:48:30.451Z,94.24
2023-01-04T05:50:02.697Z,94.15
2023-01-04T05:51:34.530Z,94.19
2023-01-04T05:53:06.668Z,94.45
2023-01-04T05:54:38.367Z,93.80
2023-01-04T05:56:09.899Z,94.36
2023-01-04T05:57:42.272Z,94.68
2023-01-04T05:59:15.074Z,94.01
2023-01-04T06:00:46.738Z,94.11
2023-01-04T06:02:29.505Z,94.40
2023-01-04T06:04:01.221Z,94.73
2023-01-04T06:05:32.912Z,95.04
2023-01-04T06:07:04.510Z,95.25
2023-01-04T06:08:36.133Z,94.81
2023-01-04T06:10:10.318Z,94.51
2023-01-04T06:11:41.992Z,94.31
2023-01-04T06:13:13.622Z,94.06
2023-01-04T06:14:45.303Z,94.38
2023-01-04T06:16:16.889Z,94.78
2023-01-04T06:17:48.541Z,94.72
2023-01-04T06:19:20.178Z,94.45
2023-01-04T06:20:52.307Z,94.20
2023-01-04T06:22:27.047Z,93.67
2023-01-04T06:23:58.789Z,93.87
2023-01-04T06:25:30.377Z,94.12
2023-01-04T06:27:03.376Z,94.40
2023-01-04T06:28:40.527Z,94.21
2023-01-04T06:30:12.693Z,94.48
2023-01-04T06:31:44.695Z,94.46
2023-01-04T06:33:16.249Z,94.17
2023-01-04T06:34:48.012Z,94.17
2023-01-04T06:36:20.389Z,94.24
2023-01-04T06:37:52.152Z,94.45
2023-01-04T06:39:23.893Z,94.36
2023-01-04T06:40:55.552Z,95.00
2023-01-04T06:42:45.232Z,94.90
2023-01-04T06:44:17.017Z,94.61
2023-01-04T06:45:48.736Z,94.71
2023-01-04T06:47:20.279Z,93.84
2023-01-04T06:48:53.754Z,93.74
2023-01-04T06:50:25.326Z,93.48
2023-01-04T06:51:56.934Z,94.03
2023-01-04T06:53:28.625Z,94.42
2023-01-04T06:55:00.265Z,94.39
2023-01-04T06:56:32.337Z,94.58
2023-01-04T06:58:03.948Z,94.44
2023-01-04T06:59:35.543Z,94.42
2023-01-04T07:01:07.901Z,93.42
2023-01-04T07:02:39.917Z,93.77
2023-01-04T07:04:31.302Z,93.91
2023-01-04T07:06:07.698Z,93.82
2023-01-04T07:07:39.328Z,94.07
2023-01-04T07:09:10.928Z,93.86
2023-01-04T07:10:42.856Z,93.96
2023-01-04T07:12:14.546Z,93.71
2023-01-04T07:13:46.245Z,93.75
2023-01-04T07:15:37.995Z,93.51
2023-01-04T07:17:09.599Z,93.63
2023-01-04T07:18:41.256Z,93.75
2023-01-04T07:20:12.882Z,93.60
2023-01-04T07:21:44.540Z,94.13
2023-01-04T07:23:16.190Z,93.50
2023-01-04T07:24:47.730Z,93.77
2023-01-04T07:26:19.271Z,93.94
2023-01-04T07:27:54.385Z,93.76
2023-01-04T07:29:26.296Z,93.99
2023-01-04T07:30:57.978Z,93.84
2023-01-04T07:32:29.660Z,94.11
2023-01-04T07:34:01.278Z,94.07
2023-01-04T07:35:32.925Z,94.33
2023-01-04T07:37:04.724Z,94.48
2023-01-04T07:38:36.676Z,94.25
2023-01-04T07:40:08.855Z,94.42
2023-01-04T07:41:41.500Z,94.42
2023-01-04T07:43:13.825Z,94.53
2023-01-04T07:44:45.839Z,94.27
2023-01-04T07:46:17.600Z,94.32
2023-01-04T07:47:49.316Z,94.05
2023-01-04T07:49:21.149Z,94.28
2023-01-04T07:50:52.735Z,94.04
2023-01-04T07:52:24.374Z,94.20
2023-01-04T07:53:56.050Z,94.03
2023-01-04T07:55:27.703Z,93.81
2023-01-04T07:56:59.247Z,93.95
2023-01-04T07:58:34.319Z,94.44
2023-01-04T08:00:06.577Z,94.52
2023-01-04T08:01:43.884Z,94.57
2023-01-04T08:03:15.589Z,94.54
2023-01-04T08:04:47.264Z,94.55
2023-01-04T08:06:20.522Z,94.50
2023-01-04T08:07:52.646Z,93.81
2023-01-04T08:09:24.208Z,94.21
2023-01-04T08:10:55.766Z,94.02
2023-01-04T08:12:27.822Z,93.72
2023-01-04T08:13:59.487Z,94.36
2023-01-04T08:15:31.170Z,93.96
2023-01-04T08:17:02.868Z,94.22
2023-01-04T08:18:34.788Z,94.00
2023-01-04T08:20:07.475Z,93.66
2023-01-04T08:21:39.109Z,93.74
2023-01-04T08:23:10.704Z,93.22
2023-01-04T08:24:42.355Z,93.75
2023-01-04T08:26:15.268Z,93.27
2023-01-04T08:27:46.900Z,93.23
2023-01-04T08:29:18.546Z,93.41
2023-01-04T08:30:50.188Z,93.72
2023-01-04T08:32:21.926Z,93.64
2023-01-04T08:33:54.118Z,93.94
2023-01-04T08:35:25.741Z,93.31
2023-01-04T08:36:57.361Z,93.12
2023-01-04T08:38:58.632Z,92.58
2023-01-04T08:40:20.550Z,92.58
2023-01-04T08:42:10.831Z,92.42
2023-01-04T08:43:44.782Z,91.56
2023-01-04T08:45:16.393Z,91.68
2023-01-04T08:46:49.033Z,90.97
2023-01-04T08:48:24.543Z,90.90
2023-01-04T08:49:56.997Z,91.36
2023-01-04T08:51:28.629Z,91.21
2023-01-04T08:53:00.270Z,91.17
2023-01-04T08:54:32.881Z,90.86
2023-01-04T08:56:04.950Z,90.75
2023-01-04T08:57:36.620Z,91.08
2023-01-04T08:59:10.976Z,91.03
2023-01-04T09:00:42.609Z,91.14
2023-01-04T09:02:26.592Z,90.52
2023-01-04T09:03:58.696Z,90.06
2023-01-04T09:05:32.279Z,90.69
2023-01-04T09:07:03.856Z,90.11
2023-01-04T09:08:36.979Z,88.85
2023-01-04T09:10:09.037Z,88.37
2023-01-04T09:11:40.673Z,86.86
2023-01-04T09:13:12.382Z,84.14
2023-01-04T09:14:44.107Z,81.34
2023-01-04T09:16:18.916Z,82.00
2023-01-04T09:18:29.305Z,80.68
2023-01-04T09:19:42.467Z,80.07
2023-01-04T09:21:17.281Z,80.39
2023-01-04T09:22:48.870Z,80.98
2023-01-04T09:24:20.508Z,81.13
2023-01-04T09:25:52.467Z,81.51
2023-01-04T09:27:24.079Z,81.32
2023-01-04T09:28:56.509Z,80.21
2023-01-04T09:30:28.217Z,79.11
2023-01-04T09:31:59.881Z,79.34
2023-01-04T09:33:55.732Z,79.58
2023-01-04T09:35:23.182Z,77.93
2023-01-04T09:36:54.866Z,77.73
2023-01-04T09:38:26.474Z,75.96
2023-01-04T09:39:58.017Z,75.93
2023-01-04T09:42:00.261Z,76.26
2023-01-04T09:43:40.574Z,77.52
2023-01-04T09:45:24.863Z,75.81
2023-01-04T09:47:08.435Z,74.48
2023-01-04T09:48:42.935Z,76.07
2023-01-04T09:50:34.803Z,74.23
2023-01-04T09:52:09.364Z,75.36
2023-01-04T09:53:50.593Z,73.63
2023-01-04T09:55:38.024Z,74.42
2023-01-04T09:57:42.985Z,75.09
2023-01-04T09:59:17.592Z,74.01
2023-01-04T10:01:15.292Z,74.26
2023-01-04T10:02:53.030Z,74.68
2023-01-04T10:04:44.380Z,74.83
2023-01-04T10:06:16.086Z,73.03
2023-01-04T10:07:47.814Z,74.26
2023-01-04T10:09:20.308Z,74.86
2023-01-04T10:11:29.385Z,73.95
2023-01-04T10:13:24.149Z,75.13
2023-01-04T10:15:12.638Z,73.93
2023-01-04T10:17:14.743Z,75.04
2023-01-04T10:20:08.007Z,73.91
2023-01-04T10:23:02.764Z,72.71
2023-01-04T10:24:56.259Z,73.03
2023-01-04T10:26:36.667Z,71.78
2023-01-04T10:28:55.293Z,72.71
2023-01-04T10:30:56.211Z,71.77
2023-01-04T10:32:43.426Z,72.77
2023-01-04T10:34:29.634Z,71.16
2023-01-04T10:36:01.513Z,72.27
2023-01-04T10:37:37.587Z,72.23
2023-01-04T10:39:19.808Z,72.80
2023-01-04T10:40:52.213Z,72.79
2023-01-04T10:42:34.333Z,73.63
2023-01-04T10:44:24.786Z,72.62
2023-01-04T10:46:12.245Z,73.25
2023-01-04T10:48:02.609Z,73.22
2023-01-04T10:49:40.174Z,74.03
2023-01-04T10:51:15.531Z,73.31
2023-01-04T10:52:56.139Z,73.89
2023-01-04T10:54:35.432Z,73.11
2023-01-04T10:56:27.493Z,72.95
2023-01-04T10:58:06.812Z,73.35
2023-01-04T10:59:47.364Z,72.69
2023-01-04T11:01:42.313Z,73.05
2023-01-04T11:03:20.215Z,73.34
2023-01-04T11:05:32.296Z,72.87
2023-01-04T11:07:20.488Z,72.95
2023-01-04T11:09:16.283Z,73.02
2023-01-04T11:11:03.775Z,70.11
2023-01-04T11:12:35.403Z,70.98
2023-01-04T11:14:07.148Z,71.09
2023-01-04T11:15:38.865Z,71.46
2023-01-04T11:17:11.914Z,71.10
2023-01-04T11:18:45.544Z,70.29
2023-01-04T11:20:17.803Z,71.13
2023-01-04T11:22:02.073Z,71.48
2023-01-04T11:23:33.809Z,71.89
2023-01-04T11:27:13.329Z,70.03
2023-01-04T11:29:00.508Z,71.34
2023-01-04T11:31:10.669Z,71.22
2023-01-04T11:33:00.684Z,71.83
2023-01-04T11:34:53.609Z,71.95
2023-01-04T11:36:40.205Z,72.33
2023-01-04T11:38:13.767Z,72.51
2023-01-04T11:39:45.405Z,71.17
2023-01-04T11:41:19.425Z,71.95
2023-01-04T11:43:15.745Z,71.43
2023-01-04T11:45:16.308Z,71.14
2023-01-04T11:47:05.165Z,72.09
2023-01-04T11:48:43.705Z,71.86
2023-01-04T11:50:42.971Z,72.90
2023-01-04T11:52:34.777Z,73.57
2023-01-04T11:54:19.368Z,71.92
2023-01-04T11:55:51.958Z,72.25
2023-01-04T11:57:23.564Z,72.05
2023-01-04T11:59:14.669Z,71.30
2023-01-04T12:00:51.555Z,71.77
2023-01-04T12:02:59.513Z,71.06
2023-01-04T12:04:26.111Z,71.54
2023-01-04T12:05:58.787Z,72.72
2023-01-04T12:07:35.468Z,72.49
2023-01-04T12:09:15.622Z,72.22
2023-01-04T12:10:50.419Z,73.03
2023-01-04T12:12:27.331Z,73.57
2023-01-04T12:13:59.985Z,72.75
2023-01-04T12:15:56.462Z,72.21
2023-01-04T12:17:43.533Z,72.07
2023-01-04T12:19:17.674Z,72.82
2023-01-04T12:20:49.345Z,72.02
2023-01-04T12:22:35.905Z,72.60
2023-01-04T12:24:07.739Z,72.69
2023-01-04T12:25:51.342Z,71.95
2023-01-04T12:27:23.603Z,72.08
2023-01-04T12:29:22.977Z,70.36
2023-01-04T12:30:54.674Z,71.26
2023-01-04T12:32:26.188Z,70.67
2023-01-04T12:34:16.764Z,70.53
2023-01-04T12:36:15.798Z,71.29
2023-01-04T12:37:49.524Z,71.06
2023-01-04T12:39:22.615Z,71.71
2023-01-04T12:40:55.316Z,72.39
2023-01-04T12:42:27.251Z,72.35
2023-01-04T12:43:58.904Z,73.30
2023-01-04T12:45:30.545Z,73.21
2023-01-04T12:47:41.929Z,72.21
2023-01-04T12:49:28.886Z,73.04
2023-01-04T12:51:33.315Z,73.18
2023-01-04T12:53:28.834Z,72.85
2023-01-04T12:55:18.195Z,73.31
2023-01-04T12:57:37.201Z,71.98
2023-01-04T12:59:29.463Z,72.64
2023-01-04T13:01:01.152Z,73.07
2023-01-04T13:02:34.107Z,72.88
2023-01-04T13:04:29.845Z,71.98
2023-01-04T13:06:04.662Z,72.65
2023-01-04T13:08:03.812Z,73.39
2023-01-04T13:09:48.270Z,73.60
2023-01-04T13:11:52.971Z,72.85
2023-01-04T13:13:34.052Z,71.56
2023-01-04T13:15:19.705Z,72.47
2023-01-04T13:17:00.684Z,72.76
2023-01-04T13:18:40.994Z,72.73
2023-01-04T13:20:25.799Z,73.24
2023-01-04T13:21:59.439Z,73.10
2023-01-04T13:23:31.380Z,72.73
2023-01-04T13:25:06.097Z,73.38
2023-01-04T13:26:43.131Z,73.48
2023-01-04T13:28:18.645Z,74.58
2023-01-04T13:29:51.936Z,74.56
2023-01-04T13:31:23.678Z,73.81
2023-01-04T13:33:24.798Z,72.78
2023-01-04T13:34:55.589Z,72.47
2023-01-04T13:36:27.295Z,72.46
2023-01-04T13:38:00.636Z,72.93
2023-01-04T13:39:32.770Z,73.28
2023-01-04T13:41:18.351Z,73.31
2023-01-04T13:42:58.508Z,72.77
2023-01-04T13:45:21.485Z,72.75
2023-01-04T13:46:56.155Z,72.23
2023-01-04T13:48:32.538Z,72.16
2023-01-04T13:50:07.012Z,73.21
2023-01-04T13:51:38.698Z,72.90
2023-01-04T13:53:24.074Z,73.12
2023-01-04T13:55:21.178Z,73.05
2023-01-04T13:58:46.239Z,73.98
2023-01-04T14:00:18.332Z,73.13
2023-01-04T14:01:50.791Z,72.50
2023-01-04T14:03:45.126Z,72.50
2023-01-04T14:05:18.641Z,72.90
2023-01-04T14:06:51.815Z,72.37
2023-01-04T14:09:16.169Z,71.77
2023-01-04T14:10:48.140Z,72.21
2023-01-04T14:12:24.903Z,73.15
2023-01-04T14:13:56.608Z,72.58
2023-01-04T14:15:29.415Z,72.22
2023-01-04T14:17:10.210Z,72.23
2023-01-04T14:18:41.869Z,72.99
2023-01-04T14:20:14.214Z,72.74
2023-01-04T14:21:45.828Z,72.04
2023-01-04T14:23:35.467Z,71.96
2023-01-04T14:25:41.941Z,72.05
2023-01-04T14:27:34.099Z,71.50
2023-01-04T14:29:32.460Z,71.28
2023-01-04T14:31:05.126Z,71.49
2023-01-04T14:32:36.761Z,71.41
2023-01-04T14:34:14.475Z,71.08
2023-01-04T14:35:48.982Z,71.66
2023-01-04T14:37:21.776Z,71.97
2023-01-04T14:39:06.446Z,71.65
2023-01-04T14:40:39.037Z,71.70
2023-01-04T14:42:27.826Z,71.02
2023-01-04T14:43:59.404Z,71.54
2023-01-04T14:45:31.273Z,71.87
2023-01-04T14:47:07.352Z,71.25
2023-01-04T14:48:39.249Z,71.57
2023-01-04T14:50:13.157Z,71.71
2023-01-04T14:52:03.076Z,71.43
2023-01-04T14:53:35.100Z,71.75
2023-01-04T14:55:07.259Z,71.56
2023-01-04T14:56:39.882Z,71.82
2023-01-04T14:58:11.548Z,71.22
2023-01-04T14:59:44.923Z,71.32
2023-01-04T15:01:16.650Z,71.16
2023-01-04T15:02:51.022Z,71.54
2023-01-04T15:04:23.522Z,71.27
2023-01-04T15:05:55.252Z,72.21
2023-01-04T15:07:35.805Z,71.80
2023-01-04T15:09:09.979Z,71.97
2023-01-04T15:10:41.539Z,71.98
2023-01-04T15:12:13.143Z,71.55
2023-01-04T15:13:45.124Z,71.80
2023-01-04T15:15:16.837Z,72.66
2023-01-04T15:16:48.985Z,72.31
2023-01-04T15:18:20.576Z,72.56
2023-01-04T15:19:52.163Z,72.32
2023-01-04T15:21:23.834Z,71.93
2023-01-04T15:22:55.513Z,72.97
2023-01-04T15:24:27.170Z,72.08
2023-01-04T15:26:01.724Z,72.39
2023-01-04T15:27:39.987Z,72.12
2023-01-04T15:29:13.813Z,72.43
2023-01-04T15:30:45.658Z,72.59
2023-01-04T15:32:17.539Z,72.23
2023-01-04T15:33:49.430Z,72.88
2023-01-04T15:35:21.013Z,73.08
2023-01-04T15:36:52.788Z,73.40
2023-01-04T15:38:24.431Z,72.60
2023-01-04T15:40:01.889Z,72.21
2023-01-04T15:41:52.695Z,72.66
2023-01-04T15:43:26.457Z,72.74
2023-01-04T15:44:59.535Z,72.20
2023-01-04T15:46:31.530Z,72.66
2023-01-04T15:48:08.163Z,73.37
2023-01-04T15:49:39.968Z,72.30
2023-01-04T15:51:11.633Z,72.30
2023-01-04T15:52:43.263Z,72.39
2023-01-04T15:54:14.974Z,72.96
2023-01-04T15:55:46.628Z,73.08
2023-01-04T15:57:18.369Z,73.13
2023-01-04T15:58:55.249Z,73.68
2023-01-04T16:00:27.477Z,73.62
2023-01-04T16:01:59.222Z,73.62
2023-01-04T16:03:30.903Z,73.70
2023-01-04T16:05:02.576Z,73.41
2023-01-04T16:06:34.332Z,73.09
2023-01-04T16:08:05.956Z,73.52
2023-01-04T16:09:37.985Z,72.91
2023-01-04T16:11:21.275Z,72.94
2023-01-04T16:12:56.683Z,72.81
2023-01-04T16:14:29.216Z,72.84
2023-01-04T16:16:01.468Z,72.82
2023-01-04T16:17:33.337Z,73.16
2023-01-04T16:19:05.943Z,72.97
2023-01-04T16:20:41.239Z,73.16
2023-01-04T16:22:12.901Z,73.48
2023-01-04T16:23:49.966Z,73.52
2023-01-04T16:25:21.667Z,73.84
2023-01-04T16:26:53.387Z,72.77
2023-01-04T16:28:24.940Z,72.98
2023-01-04T16:29:56.604Z,73.25
2023-01-04T16:31:33.277Z,73.48
2023-01-04T16:33:05.242Z,73.81
2023-01-04T16:34:36.953Z,73.68
2023-01-04T16:36:11.371Z,73.03
2023-01-04T16:37:43.302Z,73.10
2023-01-04T16:39:15.779Z,74.11
2023-01-04T16:40:56.957Z,74.85
2023-01-04T16:42:28.634Z,74.50
2023-01-04T16:44:01.224Z,74.04
2023-01-04T16:45:33.258Z,74.45
2023-01-04T16:47:05.038Z,74.77
2023-01-04T16:48:36.823Z,74.66
2023-01-04T16:50:10.207Z,74.77
2023-01-04T16:51:43.930Z,74.76
2023-01-04T16:53:15.533Z,74.92
2023-01-04T16:54:47.131Z,75.02
2023-01-04T16:56:20.276Z,74.82
2023-01-04T16:57:51.874Z,74.69
2023-01-04T16:59:23.560Z,74.73
2023-01-04T17:00:55.307Z,74.46
2023-01-04T17:02:27.047Z,74.44
2023-01-04T17:04:03.042Z,74.15
2023-01-04T17:05:39.556Z,74.29
2023-01-04T17:07:11.431Z,75.36
2023-01-04T17:08:44.437Z,74.87
2023-01-04T17:10:16.346Z,74.74
2023-01-04T17:13:49.312Z,74.02
2023-01-04T17:15:42.495Z,74.56
2023-01-04T17:17:12.812Z,74.02
2023-01-04T17:18:44.531Z,73.95
2023-01-04T17:20:16.485Z,74.40
2023-01-04T17:21:48.748Z,74.34
2023-01-04T17:23:20.697Z,73.74
2023-01-04T17:24:52.330Z,74.02
2023-01-04T17:26:33.374Z,74.61
2023-01-04T17:28:05.037Z,74.66
2023-01-04T17:29:36.707Z,73.96
2023-01-04T17:31:13.430Z,74.24
2023-01-04T17:32:45.126Z,73.18
2023-01-04T17:34:22.590Z,73.13
2023-01-04T17:35:54.720Z,73.68
2023-01-04T17:37:27.121Z,74.31
2023-01-04T17:39:03.262Z,74.05
2023-01-04T17:40:35.984Z,74.87
2023-01-04T17:42:07.763Z,74.86
2023-01-04T17:43:40.825Z,74.36
2023-01-04T17:45:12.561Z,74.45
2023-01-04T17:46:44.261Z,73.89
2023-01-04T17:48:17.359Z,73.88
2023-01-04T17:49:49.035Z,74.00
2023-01-04T17:51:23.180Z,73.18
2023-01-04T17:52:58.316Z,73.52
2023-01-04T17:54:30.053Z,74.21
2023-01-04T17:56:20.977Z,74.00
2023-01-04T17:57:52.606Z,74.55
2023-01-04T17:59:24.315Z,74.51
2023-01-04T18:00:56.248Z,74.67
2023-01-04T18:02:28.288Z,74.71
2023-01-04T18:04:01.857Z,74.60
2023-01-04T18:05:44.973Z,74.67
2023-01-04T18:07:25.461Z,74.92
2023-01-04T18:08:58.330Z,74.93
2023-01-04T18:10:41.300Z,74.68
2023-01-04T18:12:21.999Z,74.76
2023-01-04T18:13:53.955Z,75.82
2023-01-04T18:15:25.667Z,76.50
2023-01-04T18:16:58.160Z,76.73
2023-01-04T18:18:30.761Z,77.19
2023-01-04T18:20:02.610Z,77.76
2023-01-04T18:21:34.491Z,77.40
2023-01-04T18:23:06.406Z,77.21
2023-01-04T18:24:39.152Z,77.44
2023-01-04T18:26:12.670Z,78.17
2023-01-04T18:27:44.274Z,77.31
2023-01-04T18:29:15.948Z,77.52
2023-01-04T18:30:48.414Z,76.88
2023-01-04T18:32:21.009Z,77.53
2023-01-04T18:33:55.109Z,77.80
2023-01-04T18:35:27.051Z,77.46
2023-01-04T18:36:58.783Z,77.79
2023-01-04T18:38:30.554Z,77.81
2023-01-04T18:40:03.654Z,77.74
2023-01-04T18:41:35.443Z,78.21
2023-01-04T18:43:07.109Z,78.04
2023-01-04T18:44:45.579Z,77.15
2023-01-04T18:46:21.657Z,77.75
2023-01-04T18:47:53.369Z,78.38
2023-01-04T18:49:25.085Z,78.74
2023-01-04T18:51:02.385Z,79.18
2023-01-04T18:52:35.553Z,78.91
2023-01-04T18:54:07.213Z,79.05
2023-01-04T18:55:39.341Z,79.82
2023-01-04T18:57:11.353Z,80.19
2023-01-04T18:58:43.133Z,79.77
2023-01-04T19:00:15.022Z,79.42
2023-01-04T19:01:46.768Z,79.63
2023-01-04T19:03:18.809Z,80.35
2023-01-04T19:04:50.652Z,80.49
2023-01-04T19:06:23.448Z,81.04
2023-01-04T19:07:55.292Z,80.21
2023-01-04T19:09:27.278Z,80.66
2023-01-04T19:10:59.026Z,80.49
2023-01-04T19:12:30.731Z,80.68
2023-01-04T19:14:03.584Z,80.73
2023-01-04T19:15:36.196Z,80.35
2023-01-04T19:17:08.826Z,79.97
2023-01-04T19:18:41.114Z,80.56
2023-01-04T19:20:12.889Z,80.87
2023-01-04T19:21:46.047Z,80.51
2023-01-04T19:23:17.835Z,80.11
2023-01-04T19:24:49.500Z,79.88
2023-01-04T19:26:21.803Z,79.53
2023-01-04T19:27:53.441Z,79.62
2023-01-04T19:29:25.101Z,79.46
2023-01-04T19:30:56.936Z,79.31
2023-01-04T19:32:33.215Z,79.28
2023-01-04T19:34:05.420Z,79.57
2023-01-04T19:35:45.416Z,79.42
2023-01-04T19:37:17.178Z,79.20
2023-01-04T19:38:48.840Z,79.65
2023-01-04T19:40:20.439Z,79.49
2023-01-04T19:41:52.092Z,79.60
2023-01-04T19:43:23.834Z,79.71
2023-01-04T19:44:55.480Z,79.69
2023-01-04T19:46:27.227Z,79.52
2023-01-04T19:47:58.827Z,79.96
2023-01-04T19:49:30.472Z,79.62
2023-01-04T19:51:09.622Z,80.09
2023-01-04T19:52:41.249Z,80.78
2023-01-04T19:54:13.796Z,80.54
2023-01-04T19:55:45.407Z,80.50
2023-01-04T19:57:17.019Z,80.37
2023-01-04T19:58:48.608Z,80.79
2023-01-04T20:00:20.307Z,80.78
2023-01-04T20:01:53.061Z,81.02
2023-01-04T20:03:28.939Z,80.90
2023-01-04T20:05:00.914Z,81.30
2023-01-04T20:06:33.267Z,81.06
2023-01-04T20:08:05.204Z,81.29
2023-01-04T20:09:37.310Z,81.15
2023-01-04T20:11:12.835Z,81.12
2023-01-04T20:12:44.475Z,81.23
2023-01-04T20:14:16.167Z,81.15
2023-01-04T20:15:47.888Z,81.27
2023-01-04T20:17:19.559Z,81.27
2023-01-04T20:18:54.585Z,81.63
2023-01-04T20:20:26.207Z,81.85
2023-01-04T20:21:58.041Z,81.94
2023-01-04T20:23:29.759Z,81.58
2023-01-04T20:25:01.463Z,81.25
2023-01-04T20:26:33.115Z,81.59
2023-01-04T20:28:04.780Z,82.29
2023-01-04T20:29:37.308Z,82.26
2023-01-04T20:31:12.088Z,82.31
2023-01-04T20:32:44.165Z,82.28
2023-01-04T20:34:15.862Z,82.10
2023-01-04T20:35:47.499Z,82.08
2023-01-04T20:37:19.148Z,83.15
2023-01-04T20:38:50.846Z,83.29
2023-01-04T20:40:26.956Z,83.46
2023-01-04T20:42:17.140Z,83.70
2023-01-04T20:43:49.600Z,84.00
2023-01-04T20:45:21.382Z,83.84
2023-01-04T20:46:53.046Z,84.64
2023-01-04T20:48:25.066Z,85.23
2023-01-04T20:49:56.878Z,85.34
2023-01-04T20:51:30.339Z,85.03
2023-01-04T20:53:02.417Z,85.00
2023-01-04T20:54:34.125Z,85.36